Brentwood, New Hampshire
Current Conditions -  °F | °C
As of 5:58 PM on Monday 24 Nov 2014 (Local Time) from KPSM Reporting Station
Overcast Overcast  
Wind Chill: 64°   Ceiling: 2000
Heat Index: 64°   Visibility: 10mi
Dew Point: 58°   Wind: 10mph
Humidity: 80%   Direction: 210°SSW
Pressure: 29.55"   Gusts: 20mph
Location:  42.9832°N, 70.9915°W
Report Text: KPSM 242258Z 21009G17KT 10SM OVC020 18/14 A2955 RMK AO2A SLP010 T01790144
Loading
Personal Weather Stations






























Interactive Weather Map New forecast layout! Learn more

10-Day Weather Forecast

Advertisements
Track Severe Weather on mobile